Time;durP1;ratioP1;P1;durP2;ratioP2;P2;SDS_P1;SDS_P2;PMS_P1;PMS_P2;Temp;Humidity;BMP_temperature;BMP_pressure;BME280_temperature;BME280_humidity;BME280_pressure;Samples;Min_cycle;Max_cycle;Signal;HPM_P1;HPM_P2
2021/12/04 00:00:00;;;;;;;21.50;9.80;;;;;;;-2.23;72.21;98414.68;102523;1311;69922;-77
2021/12/04 00:02:27;;;;;;;15.30;7.40;;;;;;;-2.15;72.17;98410.80;102499;1310;73001;-76
2021/12/04 00:04:55;;;;;;;19.00;8.50;;;;;;;-2.06;72.14;98402.05;102411;1310;62115;-76
2021/12/04 00:07:22;;;;;;;19.40;9.10;;;;;;;-2.00;72.20;98407.31;102398;1310;62194;-76
2021/12/04 00:09:50;;;;;;;18.40;9.80;;;;;;;-2.00;72.17;98405.20;102312;1310;75712;-75
2021/12/04 00:12:18;;;;;;;18.30;8.90;;;;;;;-2.02;72.19;98404.90;102416;1310;68028;-76
2021/12/04 00:14:45;;;;;;;20.20;9.10;;;;;;;-2.05;72.30;98413.89;102209;1311;73540;-75
2021/12/04 00:17:12;;;;;;;16.20;9.50;;;;;;;-2.12;72.25;98416.31;101861;1314;62706;-77
2021/12/04 00:19:39;;;;;;;19.80;10.20;;;;;;;-2.19;72.43;98415.27;102221;1319;62209;-75
2021/12/04 00:22:05;;;;;;;21.40;10.90;;;;;;;-2.27;72.64;98415.29;102334;1313;77516;-76
2021/12/04 00:24:33;;;;;;;16.40;9.70;;;;;;;-2.35;72.80;98417.05;102336;1313;69547;-76
2021/12/04 00:27:00;;;;;;;18.30;9.60;;;;;;;-2.43;72.96;98416.56;102377;1314;71399;-76
2021/12/04 00:29:27;;;;;;;16.60;9.90;;;;;;;-2.51;73.08;98411.68;102354;1314;62083;-75
2021/12/04 00:32:10;;;;;;;17.40;10.20;;;;;;;-2.54;73.23;98402.73;102478;1310;62201;-75
2021/12/04 00:34:42;;;;;;;18.90;10.40;;;;;;;-2.58;73.24;98399.00;102474;1312;75404;-76
2021/12/04 00:50:56;;;;;;;26.20;15.00;;;;;;;-2.83;74.10;98396.81;102418;1316;69434;-78
2021/12/04 00:53:41;;;;;;;26.80;15.30;;;;;;;-2.83;74.27;98393.67;102365;1316;73282;-76
2021/12/04 00:56:17;;;;;;;26.10;15.90;;;;;;;-2.82;74.39;98398.69;102377;1316;62219;-76
2021/12/04 00:58:44;;;;;;;30.10;17.60;;;;;;;-2.83;74.47;98398.00;102404;1313;62448;-77
2021/12/04 01:01:11;;;;;;;29.50;18.70;;;;;;;-2.87;74.71;98401.39;102495;1310;76193;-75
2021/12/04 01:03:38;;;;;;;27.60;18.30;;;;;;;-2.91;74.68;98398.71;102435;1317;69494;-74
2021/12/04 01:06:06;;;;;;;31.80;18.00;;;;;;;-2.95;74.70;98396.91;102263;1317;73334;-75
2021/12/04 01:08:34;;;;;;;34.50;17.60;;;;;;;-3.00;74.79;98389.02;102109;1313;62145;-76
2021/12/04 01:11:02;;;;;;;25.10;15.80;;;;;;;-3.03;74.91;98387.16;102267;1317;62140;-75
2021/12/04 01:13:30;;;;;;;31.50;17.60;;;;;;;-3.06;74.94;98388.09;102610;1316;76354;-75
2021/12/04 01:15:57;;;;;;;29.20;17.40;;;;;;;-3.11;74.99;98386.64;101932;1313;1016576;-76
2021/12/04 01:18:24;;;;;;;34.00;17.60;;;;;;;-3.16;75.00;98390.91;102422;1311;73545;-75
2021/12/04 01:20:51;;;;;;;32.60;19.20;;;;;;;-3.18;75.29;98392.71;102361;1310;62130;-76
2021/12/04 01:23:17;;;;;;;32.30;19.20;;;;;;;-3.24;75.55;98395.26;101954;1316;62445;-77
2021/12/04 01:25:45;;;;;;;32.70;19.90;;;;;;;-3.32;75.74;98403.59;102356;1317;76290;-77
2021/12/04 01:28:12;;;;;;;30.60;20.50;;;;;;;-3.41;75.90;98405.17;102432;1313;70847;-77
2021/12/04 01:30:38;;;;;;;34.10;20.90;;;;;;;-3.48;76.14;98404.80;102417;1316;72722;-75
2021/12/04 01:33:05;;;;;;;29.50;18.20;;;;;;;-3.56;76.20;98401.63;102405;1316;62198;-77
2021/12/04 01:35:32;;;;;;;30.60;19.90;;;;;;;-3.61;76.42;98398.08;102673;1317;62215;-76
2021/12/04 01:37:58;;;;;;;35.60;19.00;;;;;;;-3.64;76.56;98394.85;103033;1310;76321;-75
2021/12/04 01:40:27;;;;;;;33.50;20.10;;;;;;;-3.64;76.80;98393.31;103143;1316;69572;-77
2021/12/04 01:42:54;;;;;;;37.50;20.00;;;;;;;-3.61;76.99;98388.02;102702;1310;74419;-76
2021/12/04 01:45:20;;;;;;;33.90;20.90;;;;;;;-3.55;77.05;98383.92;102407;1317;62221;-76
2021/12/04 01:47:47;;;;;;;34.00;19.90;;;;;;;-3.53;77.12;98381.10;102077;1318;62188;-76
2021/12/04 01:50:14;;;;;;;34.40;21.40;;;;;;;-3.56;77.18;98375.95;102435;1314;76257;-76
2021/12/04 01:52:40;;;;;;;34.70;21.00;;;;;;;-3.62;77.29;98375.55;102393;1316;70309;-76
2021/12/04 01:55:08;;;;;;;36.10;21.10;;;;;;;-3.70;77.30;98371.38;102367;1311;73969;-77
2021/12/04 01:57:35;;;;;;;33.60;21.50;;;;;;;-3.76;77.53;98365.77;102394;1310;62136;-75
2021/12/04 02:00:05;;;;;;;38.80;22.40;;;;;;;-3.84;77.57;98358.11;102364;1317;62151;-74
2021/12/04 02:02:32;;;;;;;41.80;25.30;;;;;;;-3.92;77.73;98353.56;102378;1310;76331;-74
2021/12/04 02:04:59;;;;;;;51.60;29.80;;;;;;;-3.98;77.86;98352.46;102369;1313;69309;-77
2021/12/04 02:07:25;;;;;;;74.30;35.30;;;;;;;-4.04;78.00;98349.45;101137;1310;1003029;-76
2021/12/04 02:09:52;;;;;;;69.30;34.90;;;;;;;-4.12;77.96;98343.03;101603;1311;1003910;-77
2021/12/04 02:12:18;;;;;;;121.50;49.30;;;;;;;-4.19;78.15;98340.89;100544;1318;1003010;-77
2021/12/04 02:14:45;;;;;;;101.40;41.70;;;;;;;-4.26;78.17;98338.76;102298;1318;62120;-77
2021/12/04 02:17:11;;;;;;;115.30;47.80;;;;;;;-4.30;78.47;98338.65;102366;1310;62114;-76
2021/12/04 02:19:39;;;;;;;111.50;45.20;;;;;;;-4.30;78.52;98343.35;102282;1310;72696;-77
2021/12/04 02:22:06;;;;;;;168.70;61.60;;;;;;;-4.27;78.47;98345.53;102077;1318;62100;-77
2021/12/04 02:24:33;;;;;;;162.50;66.10;;;;;;;-4.20;78.37;98345.76;102381;1311;62104;-77
2021/12/04 02:26:59;;;;;;;113.80;48.90;;;;;;;-4.13;78.65;98342.69;102362;1310;76282;-76
2021/12/04 02:29:26;;;;;;;122.40;50.70;;;;;;;-4.12;78.46;98336.95;102243;1317;69805;-77
2021/12/04 02:31:55;;;;;;;114.30;48.20;;;;;;;-4.12;78.81;98328.63;102183;1318;74294;-77
2021/12/04 02:34:28;;;;;;;98.50;43.70;;;;;;;-4.13;78.83;98326.73;102278;1317;62102;-76
2021/12/04 02:36:57;;;;;;;89.10;42.30;;;;;;;-4.14;78.97;98324.33;102340;1317;62115;-76
2021/12/04 02:39:32;;;;;;;108.20;46.00;;;;;;;-4.15;79.00;98315.67;102410;1316;77101;-77
2021/12/04 02:42:00;;;;;;;96.20;44.90;;;;;;;-4.18;79.10;98314.00;102405;1317;70367;-75
2021/12/04 02:44:39;;;;;;;110.90;44.70;;;;;;;-4.22;79.22;98311.30;102318;1313;73540;-75
2021/12/04 02:47:06;;;;;;;97.30;43.60;;;;;;;-4.26;79.28;98307.73;102323;1317;62148;-76
2021/12/04 02:49:34;;;;;;;95.10;45.90;;;;;;;-4.31;79.47;98302.25;102340;1316;62222;-75
2021/12/04 02:52:05;;;;;;;178.70;60.40;;;;;;;-4.32;79.55;98304.02;102310;1311;76433;-76
2021/12/04 02:54:33;;;;;;;76.90;37.90;;;;;;;-4.34;79.54;98301.47;102335;1316;70244;-76
2021/12/04 02:57:01;;;;;;;78.10;34.90;;;;;;;-4.33;79.69;98296.39;102381;1317;73377;-76
2021/12/04 02:59:27;;;;;;;86.20;36.00;;;;;;;-4.29;79.99;98293.38;102343;1316;62116;-76
2021/12/04 03:01:56;;;;;;;76.50;37.50;;;;;;;-4.22;80.12;98292.55;102370;1314;62035;-76
2021/12/04 03:04:24;;;;;;;72.90;38.50;;;;;;;-4.16;80.26;98297.31;102352;1316;77221;-75
2021/12/04 03:06:51;;;;;;;77.90;37.20;;;;;;;-4.16;80.25;98296.96;102467;1316;70554;-77
2021/12/04 03:09:18;;;;;;;78.20;37.00;;;;;;;-4.22;80.07;98297.59;102396;1316;74333;-76
2021/12/04 03:11:46;;;;;;;76.50;37.70;;;;;;;-4.28;80.16;98293.89;102424;1316;62126;-76
2021/12/04 03:14:13;;;;;;;81.50;39.00;;;;;;;-4.34;80.20;98289.82;102534;1317;62047;-75
2021/12/04 03:16:42;;;;;;;77.70;36.80;;;;;;;-4.40;80.39;98286.98;102343;1317;77747;-75
2021/12/04 03:19:09;;;;;;;76.00;38.70;;;;;;;-4.44;80.52;98290.19;102487;1317;69353;-76
2021/12/04 03:21:37;;;;;;;79.40;36.60;;;;;;;-4.48;80.73;98288.88;102323;1314;73376;-74
2021/12/04 03:24:10;;;;;;;77.40;36.80;;;;;;;-4.53;80.86;98284.80;101938;1317;62207;-76
2021/12/04 03:26:38;;;;;;;70.80;37.20;;;;;;;-4.58;80.86;98278.31;102338;1317;62224;-77
2021/12/04 03:29:10;;;;;;;74.30;38.10;;;;;;;-4.61;81.02;98278.89;102299;1317;77256;-76
2021/12/04 03:42:22;;;;;;;64.90;33.80;;;;;;;-4.40;81.55;98273.48;102372;1315;76118;-75
2021/12/04 03:44:49;;;;;;;65.50;33.70;;;;;;;-4.36;81.64;98273.74;102375;1314;69924;-76
2021/12/04 03:47:19;;;;;;;65.60;35.30;;;;;;;-4.36;81.55;98267.67;102309;1313;73552;-77
2021/12/04 03:49:49;;;;;;;67.50;35.40;;;;;;;-4.39;81.55;98260.63;102317;1313;62244;-77
2021/12/04 03:52:16;;;;;;;68.70;35.00;;;;;;;-4.44;81.56;98259.16;102355;1317;62205;-77
2021/12/04 03:54:43;;;;;;;58.70;33.60;;;;;;;-4.50;81.60;98262.02;102324;1317;76261;-77
2021/12/04 03:57:12;;;;;;;55.40;32.30;;;;;;;-4.55;81.73;98263.01;102370;1313;69515;-75
2021/12/04 03:59:47;;;;;;;55.60;33.40;;;;;;;-4.64;81.69;98258.14;102336;1310;73749;-76
2021/12/04 04:02:17;;;;;;;46.80;28.60;;;;;;;-4.75;81.79;98252.79;102315;1313;62231;-77
2021/12/04 04:04:44;;;;;;;46.00;31.50;;;;;;;-4.82;81.99;98254.98;102005;1318;62273;-77
2021/12/04 04:07:11;;;;;;;54.00;34.70;;;;;;;-4.90;82.03;98248.72;102411;1316;76687;-76
2021/12/04 04:09:38;;;;;;;49.00;31.80;;;;;;;-4.95;82.15;98244.30;101906;1317;69414;-76
2021/12/04 04:12:05;;;;;;;49.10;29.20;;;;;;;-4.96;82.51;98242.58;102269;1310;72424;-77
2021/12/04 04:14:32;;;;;;;47.10;27.40;;;;;;;-4.98;82.66;98245.04;102301;1310;62152;-76
2021/12/04 04:16:59;;;;;;;59.70;38.70;;;;;;;-4.97;82.74;98239.84;102317;1311;62187;-77
2021/12/04 04:19:26;;;;;;;51.40;33.30;;;;;;;-4.91;83.08;98237.80;102305;1314;77522;-76
2021/12/04 04:21:58;;;;;;;57.30;35.60;;;;;;;-4.85;83.06;98230.44;101901;1316;67687;-76
2021/12/04 04:24:27;;;;;;;57.20;34.90;;;;;;;-4.84;83.16;98230.25;102302;1310;74190;-76
2021/12/04 04:26:55;;;;;;;62.20;35.70;;;;;;;-4.86;83.06;98228.20;102492;1311;62117;-77
2021/12/04 04:29:22;;;;;;;57.80;36.70;;;;;;;-4.88;83.14;98223.38;102322;1317;62085;-75
2021/12/04 04:31:49;;;;;;;55.40;37.30;;;;;;;-4.91;83.17;98214.95;102308;1316;77342;-76
2021/12/04 04:34:26;;;;;;;54.70;37.70;;;;;;;-4.91;83.21;98211.30;102364;1311;69942;-77
2021/12/04 04:59:19;;;;;;;53.90;37.30;;;;;;;-4.78;83.90;98177.83;102296;1310;77536;-76
2021/12/04 05:14:36;;;;;;;60.60;40.00;;;;;;;-5.02;83.93;98157.81;102253;1317;69338;-76
2021/12/04 05:17:07;;;;;;;62.30;39.80;;;;;;;-5.07;84.04;98158.94;102371;1310;74541;-76
2021/12/04 05:19:53;;;;;;;66.00;42.30;;;;;;;-5.10;84.16;98156.73;102278;1310;62105;-76
2021/12/04 05:22:21;;;;;;;56.50;39.60;;;;;;;-5.09;84.23;98154.12;102194;1313;62148;-77
2021/12/04 05:24:49;;;;;;;55.60;36.10;;;;;;;-5.04;84.39;98155.42;102246;1314;76353;-75
2021/12/04 05:27:16;;;;;;;52.50;36.50;;;;;;;-4.95;84.59;98154.55;102298;1316;69681;-78
2021/12/04 05:29:43;;;;;;;54.00;33.50;;;;;;;-4.85;84.63;98148.15;102209;1316;74269;-76
2021/12/04 05:32:10;;;;;;;58.40;37.40;;;;;;;-4.77;84.77;98140.88;102270;1316;62196;-78
2021/12/04 05:34:38;;;;;;;56.80;38.50;;;;;;;-4.72;84.74;98131.27;102251;1310;62206;-76
2021/12/04 05:37:05;;;;;;;62.50;41.40;;;;;;;-4.71;84.59;98128.64;102290;1316;76231;-76
2021/12/04 05:39:31;;;;;;;61.30;40.50;;;;;;;-4.69;84.64;98125.64;101888;1314;69530;-76
2021/12/04 05:41:59;;;;;;;63.60;39.40;;;;;;;-4.69;84.65;98125.81;102230;1311;74481;-76
2021/12/04 05:44:28;;;;;;;60.90;41.60;;;;;;;-4.69;84.69;98120.80;102309;1310;62142;-77
2021/12/04 05:47:09;;;;;;;62.60;38.60;;;;;;;-4.67;84.71;98113.66;102475;1310;62104;-77
2021/12/04 05:52:22;;;;;;;56.60;38.40;;;;;;;-4.67;84.86;98106.88;102379;1317;69679;-77
2021/12/04 05:55:07;;;;;;;66.30;42.00;;;;;;;-4.68;84.98;98103.62;102305;1311;73434;-77
2021/12/04 05:57:34;;;;;;;66.30;43.30;;;;;;;-4.70;84.91;98101.95;101857;1316;62240;-77
2021/12/04 06:00:01;;;;;;;56.50;39.10;;;;;;;-4.70;84.95;98100.88;102257;1316;62141;-77
2021/12/04 06:02:28;;;;;;;59.40;39.90;;;;;;;-4.67;85.08;98092.16;101554;1310;1003892;-77
2021/12/04 06:04:54;;;;;;;52.20;37.40;;;;;;;-4.62;85.09;98082.54;102310;1316;69623;-77
2021/12/04 06:07:21;;;;;;;58.90;38.80;;;;;;;-4.59;85.23;98085.61;102224;1311;62118;-77
2021/12/04 06:09:47;;;;;;;61.10;40.90;;;;;;;-4.53;85.34;98081.48;101927;1314;62246;-76
2021/12/04 06:12:14;;;;;;;63.00;42.70;;;;;;;-4.51;85.31;98080.58;101970;1313;62174;-76
2021/12/04 06:14:45;;;;;;;68.70;48.00;;;;;;;-4.52;85.27;98082.49;101599;1310;1015162;-76
2021/12/04 06:17:12;;;;;;;72.90;47.60;;;;;;;-4.52;85.28;98089.61;102290;1313;69180;-76
2021/12/04 06:22:37;;;;;;;70.50;47.70;;;;;;;-4.55;85.42;98086.20;102372;1310;62215;-75
2021/12/04 06:25:14;;;;;;;60.40;41.00;;;;;;;-4.54;85.31;98089.12;102094;1311;62121;-76
2021/12/04 06:27:42;;;;;;;60.20;41.30;;;;;;;-4.55;85.38;98091.58;102421;1311;75615;-77
2021/12/04 06:30:12;;;;;;;61.00;40.20;;;;;;;-4.52;85.33;98087.34;102388;1310;69400;-77
2021/12/04 06:32:38;;;;;;;64.40;43.10;;;;;;;-4.48;85.41;98083.63;102571;1310;74163;-75
2021/12/04 06:35:08;;;;;;;65.00;41.80;;;;;;;-4.43;85.52;98077.10;102484;1314;62224;-76
2021/12/04 06:37:35;;;;;;;78.00;50.50;;;;;;;-4.37;85.59;98077.84;102695;1316;62091;-76
2021/12/04 06:40:05;;;;;;;89.50;56.60;;;;;;;-4.32;85.59;98075.14;102405;1313;76230;-77
2021/12/04 06:42:31;;;;;;;81.10;55.80;;;;;;;-4.27;85.50;98080.91;102577;1316;69174;-76
2021/12/04 06:44:58;;;;;;;126.10;70.70;;;;;;;-4.25;85.43;98086.23;103957;1317;72934;-77
2021/12/04 06:47:25;;;;;;;94.30;62.20;;;;;;;-4.23;85.48;98091.75;104399;1311;62209;-78
2021/12/04 06:49:55;;;;;;;96.90;61.40;;;;;;;-4.18;85.48;98088.00;103968;1317;61960;-76
2021/12/04 06:52:25;;;;;;;91.50;61.10;;;;;;;-4.14;85.62;98085.83;103593;1311;74179;-77
2021/12/04 06:54:57;;;;;;;98.50;59.70;;;;;;;-4.12;85.51;98089.07;103365;1311;70202;-77
2021/12/04 06:57:25;;;;;;;91.10;57.30;;;;;;;-4.10;85.49;98090.08;103402;1314;1002946;-77
2021/12/04 06:59:54;;;;;;;90.80;59.40;;;;;;;-4.10;85.41;98091.80;104247;1313;62097;-76
2021/12/04 07:02:21;;;;;;;95.70;61.60;;;;;;;-4.10;85.39;98082.44;103596;1311;62194;-80
2021/12/04 07:04:48;;;;;;;80.80;54.70;;;;;;;-4.08;85.44;98082.55;102424;1316;77365;-77
2021/12/04 07:07:15;;;;;;;71.10;46.90;;;;;;;-4.03;85.36;98083.66;102411;1317;70519;-76
2021/12/04 07:09:43;;;;;;;63.60;42.60;;;;;;;-3.93;85.41;98089.52;102080;1317;71543;-78
2021/12/04 07:12:11;;;;;;;78.50;46.00;;;;;;;-3.82;85.57;98088.71;102469;1311;62318;-77
2021/12/04 07:14:38;;;;;;;77.20;50.30;;;;;;;-3.72;85.54;98091.95;102472;1316;62208;-77
2021/12/04 07:17:07;;;;;;;74.00;51.90;;;;;;;-3.63;85.49;98086.20;102296;1310;76752;-77
2021/12/04 07:19:35;;;;;;;71.60;55.50;;;;;;;-3.59;85.28;98085.39;102415;1310;70587;-76
2021/12/04 07:22:03;;;;;;;69.50;47.60;;;;;;;-3.55;85.38;98080.95;102296;1310;74176;-77
2021/12/04 07:24:32;;;;;;;67.00;46.30;;;;;;;-3.49;85.30;98084.63;102254;1310;62174;-78
2021/12/04 07:26:58;;;;;;;65.50;45.50;;;;;;;-3.47;85.24;98078.32;102434;1311;62194;-78
2021/12/04 07:29:25;;;;;;;71.40;47.90;;;;;;;-3.45;85.21;98085.73;102290;1310;77274;-77
2021/12/04 07:31:52;;;;;;;63.00;44.40;;;;;;;-3.39;85.20;98070.30;102318;1310;69619;-77
2021/12/04 07:34:18;;;;;;;61.60;42.00;;;;;;;-3.32;85.10;98071.15;102297;1310;74462;-77
2021/12/04 07:36:45;;;;;;;69.60;47.00;;;;;;;-3.21;85.22;98072.09;102289;1313;62235;-77
2021/12/04 07:39:12;;;;;;;82.50;57.00;;;;;;;-3.13;85.19;98070.81;102252;1310;62116;-77
2021/12/04 07:41:42;;;;;;;82.70;62.20;;;;;;;-3.02;85.17;98063.77;101991;1317;76440;-77
2021/12/04 07:44:10;;;;;;;74.70;57.00;;;;;;;-2.91;85.09;98060.48;102368;1310;70109;-77
2021/12/04 07:46:38;;;;;;;74.50;55.50;;;;;;;-2.84;85.10;98063.95;102255;1317;73577;-77
2021/12/04 07:49:05;;;;;;;81.60;56.80;;;;;;;-2.82;85.10;98065.11;102288;1316;62085;-77
2021/12/04 07:51:33;;;;;;;75.00;55.30;;;;;;;-2.80;84.98;98064.37;102389;1311;62171;-76
2021/12/04 07:54:00;;;;;;;81.70;57.60;;;;;;;-2.79;84.86;98056.34;101641;1316;1003439;-76
2021/12/04 07:56:27;;;;;;;82.70;56.70;;;;;;;-2.76;84.92;98050.70;102319;1311;70468;-76
2021/12/04 07:58:54;;;;;;;79.50;55.00;;;;;;;-2.74;84.97;98048.05;102242;1310;74210;-77
2021/12/04 08:01:21;;;;;;;85.10;55.50;;;;;;;-2.76;84.94;98045.48;102238;1310;62135;-76
2021/12/04 08:03:48;;;;;;;75.50;47.50;;;;;;;-2.77;84.95;98046.20;102252;1316;62155;-77
2021/12/04 08:06:14;;;;;;;70.40;45.70;;;;;;;-2.75;84.89;98046.84;102220;1309;76978;-76
2021/12/04 08:08:41;;;;;;;73.60;48.30;;;;;;;-2.68;85.07;98048.73;102239;1310;70197;-77
2021/12/04 08:11:07;;;;;;;76.50;53.80;;;;;;;-2.63;85.08;98048.92;102235;1316;73524;-77
2021/12/04 08:13:34;;;;;;;105.20;60.40;;;;;;;-2.58;85.05;98051.58;101857;1310;62113;-77
2021/12/04 08:16:01;;;;;;;124.90;67.20;;;;;;;-2.53;85.02;98052.83;102340;1310;62021;-77
2021/12/04 08:18:28;;;;;;;125.30;70.70;;;;;;;-2.46;84.97;98048.59;102215;1310;77185;-78
2021/12/04 08:20:55;;;;;;;123.70;67.10;;;;;;;-2.31;85.09;98046.41;102241;1310;69308;-77
2021/12/04 08:23:22;;;;;;;110.90;66.90;;;;;;;-2.20;85.07;98038.06;102345;1310;74243;-77
2021/12/04 08:25:49;;;;;;;119.90;69.00;;;;;;;-2.12;85.00;98035.75;102424;1310;62115;-76
2021/12/04 08:28:15;;;;;;;112.80;65.40;;;;;;;-2.06;84.87;98032.21;102339;1311;62574;-77
2021/12/04 08:30:43;;;;;;;121.00;70.50;;;;;;;-2.02;84.94;98027.40;102440;1310;77271;-76
2021/12/04 08:33:12;;;;;;;123.80;72.50;;;;;;;-1.97;84.99;98031.25;102462;1310;69949;-79
2021/12/04 08:35:40;;;;;;;116.50;67.90;;;;;;;-1.91;84.73;98029.30;102320;1310;73670;-79
2021/12/04 08:38:12;;;;;;;79.90;47.60;;;;;;;-1.83;84.71;98027.15;101936;1314;62290;-78
2021/12/04 08:40:40;;;;;;;72.80;44.70;;;;;;;-1.72;84.40;98022.10;101861;1317;62045;-77
2021/12/04 08:43:07;;;;;;;73.40;45.90;;;;;;;-1.61;83.97;98020.68;102305;1310;75889;-76
2021/12/04 08:45:34;;;;;;;63.00;41.40;;;;;;;-1.46;84.03;98019.45;102290;1310;69439;-77
2021/12/04 08:48:01;;;;;;;54.50;32.90;;;;;;;-1.30;83.68;98012.63;102245;1310;74453;-77
2021/12/04 08:50:30;;;;;;;59.90;36.20;;;;;;;-1.13;83.32;98011.18;102239;1310;62115;-77
2021/12/04 08:52:59;;;;;;;69.90;41.80;;;;;;;-0.94;83.41;98013.98;102344;1310;62222;-77
2021/12/04 08:55:28;;;;;;;60.60;39.10;;;;;;;-0.77;83.23;98010.74;102263;1310;76319;-76
2021/12/04 08:57:56;;;;;;;50.40;29.40;;;;;;;-0.58;83.11;98011.95;102272;1310;69174;-77
2021/12/04 09:00:34;;;;;;;47.70;28.50;;;;;;;-0.43;82.61;98006.49;102358;1310;74148;-78
2021/12/04 09:03:03;;;;;;;46.90;27.80;;;;;;;-0.28;82.37;97995.41;102491;1311;62088;-77
2021/12/04 09:05:31;;;;;;;51.90;32.40;;;;;;;-0.12;82.13;97993.59;102487;1310;62109;-77
2021/12/04 09:07:58;;;;;;;45.00;26.20;;;;;;;0.01;82.02;97987.80;102408;1310;76240;-76
2021/12/04 09:10:25;;;;;;;35.00;23.10;;;;;;;0.13;81.73;97985.04;102373;1310;70155;-76
2021/12/04 09:12:52;;;;;;;32.60;20.40;;;;;;;0.25;81.34;97982.61;102278;1317;74167;-77
2021/12/04 09:15:22;;;;;;;26.70;17.00;;;;;;;0.42;81.15;97978.09;102312;1313;62035;-77
2021/12/04 09:17:49;;;;;;;;;;;;;;;0.63;80.73;97977.17;102411;1311;62089;-76
2021/12/04 09:20:17;;;;;;;26.20;15.40;;;;;;;0.85;80.46;97970.30;102345;1316;62094;-77
2021/12/04 09:22:45;;;;;;;26.50;15.50;;;;;;;1.09;80.25;97965.37;102442;1310;68428;-77
2021/12/04 09:25:15;;;;;;;25.10;15.60;;;;;;;1.30;80.04;97960.75;102026;1316;74920;-77
2021/12/04 09:33:26;;;;;;;23.20;12.90;;;;;;;1.85;78.65;97953.05;102358;1310;75331;-78
2021/12/04 10:32:33;;;;;;;17.40;8.80;;;;;;;3.83;70.05;97858.67;102314;1316;74309;-78
2021/12/04 10:35:15;;;;;;;18.00;10.90;;;;;;;3.91;69.85;97853.31;102372;1310;62115;-80
2021/12/04 10:37:49;;;;;;;15.40;9.10;;;;;;;3.94;69.22;97852.59;102403;1311;62244;-77
2021/12/04 10:40:18;;;;;;;18.20;10.30;;;;;;;3.94;69.03;97842.41;102318;1310;76707;-79
2021/12/04 10:42:56;;;;;;;16.30;9.30;;;;;;;4.00;69.19;97842.08;102473;1317;70268;-79
2021/12/04 10:45:32;;;;;;;16.10;9.00;;;;;;;4.06;68.90;97839.98;102374;1310;74600;-79
2021/12/04 10:48:10;;;;;;;15.50;9.50;;;;;;;4.13;68.63;97837.58;102349;1311;62164;-80
2021/12/04 10:53:11;;;;;;;10.90;7.70;;;;;;;4.29;67.84;97827.67;102332;1309;75690;-79
2021/12/04 11:40:25;;;;;;;7.10;4.40;;;;;;;5.10;62.12;97773.06;102128;1311;73582;-78
2021/12/04 11:45:11;;;;;;;6.00;4.00;;;;;;;5.29;62.12;97756.48;102347;1310;62132;-78
2021/12/04 11:47:44;;;;;;;6.90;4.50;;;;;;;5.37;62.16;97746.31;102038;1317;77111;-78
2021/12/04 11:50:39;;;;;;;10.80;6.20;;;;;;;5.41;62.03;97743.90;102332;1311;70243;-79
2021/12/04 11:53:17;;;;;;;9.60;5.30;;;;;;;5.42;61.70;97743.48;101511;1319;72591;-78
2021/12/04 11:55:47;;;;;;;5.80;5.10;;;;;;;5.38;61.23;97737.41;101523;1319;62099;-78
2021/12/04 11:58:26;;;;;;;6.00;4.90;;;;;;;5.33;60.89;97734.41;101541;1326;62131;-78
2021/12/04 12:00:57;;;;;;;8.10;5.20;;;;;;;5.29;61.00;97727.63;101616;1325;77343;-79
2021/12/04 12:03:28;;;;;;;7.00;5.30;;;;;;;5.22;60.99;97724.55;101781;1319;70401;-80
2021/12/04 12:06:01;;;;;;;8.10;5.00;;;;;;;5.16;60.93;97721.60;101637;1319;74272;-78
2021/12/04 12:08:34;;;;;;;9.00;5.30;;;;;;;5.10;60.82;97715.66;102309;1318;62309;-79
2021/12/04 12:11:13;;;;;;;6.60;4.50;;;;;;;5.04;60.89;97706.54;102602;1319;62034;-79
2021/12/04 12:13:50;;;;;;;8.70;5.10;;;;;;;4.98;61.03;97704.27;102460;1319;76210;-78
2021/12/04 12:16:26;;;;;;;10.50;6.40;;;;;;;4.92;60.98;97702.70;101643;1319;70818;-79
2021/12/04 12:19:02;;;;;;;12.50;7.20;;;;;;;4.83;60.74;97703.46;101606;1319;73484;-79
2021/12/04 12:21:39;;;;;;;8.40;5.50;;;;;;;4.72;60.31;97707.54;101698;1319;62232;-79
2021/12/04 12:36:18;;;;;;;13.50;8.00;;;;;;;4.31;60.74;97707.98;102151;1310;62168;-78
2021/12/04 12:38:53;;;;;;;11.00;6.60;;;;;;;4.28;60.71;97704.32;102450;1310;62145;-76
2021/12/04 12:41:22;;;;;;;14.70;8.80;;;;;;;4.26;60.61;97702.70;102308;1310;180664;-78
2021/12/04 12:43:55;;;;;;;11.80;7.50;;;;;;;4.26;60.75;97702.20;102341;1310;70315;-76
2021/12/04 12:46:40;;;;;;;10.60;6.90;;;;;;;4.25;60.71;97699.79;102406;1310;74504;-75
2021/12/04 12:49:24;;;;;;;9.90;6.40;;;;;;;4.22;60.60;97700.10;102430;1317;62107;-78
2021/12/04 12:52:13;;;;;;;9.70;5.80;;;;;;;4.18;60.45;97703.40;101863;1311;62225;-78
2021/12/04 12:54:56;;;;;;;10.40;6.80;;;;;;;4.13;60.75;97704.00;102295;1310;77415;-76
2021/12/04 12:57:29;;;;;;;10.10;5.70;;;;;;;4.10;60.68;97701.25;102389;1310;70902;-78
2021/12/04 13:14:15;;;;;;;8.60;6.00;;;;;;;3.65;61.33;97708.49;101659;1319;73651;-76
2021/12/04 13:16:56;;;;;;;9.40;5.70;;;;;;;3.58;61.10;97709.27;101642;1319;62290;-76
2021/12/04 13:19:24;;;;;;;10.70;6.00;;;;;;;3.53;61.24;97711.52;101630;1318;62145;-77
2021/12/04 13:21:55;;;;;;;10.60;6.60;;;;;;;3.49;61.60;97715.76;101724;1319;77287;-78
2021/12/04 13:24:25;;;;;;;11.40;8.30;;;;;;;3.46;61.74;97717.86;101751;1318;69302;-76
2021/12/04 13:26:54;;;;;;;11.60;7.80;;;;;;;3.45;61.66;97713.39;101723;1322;74484;-77
2021/12/04 13:29:24;;;;;;;9.60;6.70;;;;;;;3.44;61.53;97713.27;101762;1319;62151;-78
2021/12/04 13:31:58;;;;;;;12.50;8.20;;;;;;;3.43;61.37;97707.52;101756;1322;62066;-77
2021/12/04 13:34:29;;;;;;;16.30;9.70;;;;;;;3.42;61.37;97711.80;101789;1319;76299;-76
2021/12/04 13:36:59;;;;;;;15.80;10.10;;;;;;;3.42;61.54;97715.30;101875;1319;70465;-76
2021/12/04 13:39:26;;;;;;;19.00;10.80;;;;;;;3.43;61.23;97716.34;102031;1319;74026;-77
2021/12/04 13:41:54;;;;;;;30.90;18.10;;;;;;;3.42;60.93;97713.88;102752;1314;62128;-77
2021/12/04 13:44:25;;;;;;;22.00;13.40;;;;;;;3.44;60.97;97713.76;102793;1310;62100;-78
2021/12/04 13:46:55;;;;;;;24.30;15.50;;;;;;;3.48;60.77;97713.91;102866;1310;75982;-77
2021/12/04 13:49:31;;;;;;;17.20;10.40;;;;;;;3.52;60.77;97714.37;102554;1314;69532;-77
2021/12/04 13:52:05;;;;;;;21.60;10.60;;;;;;;3.58;60.61;97715.11;103096;1310;74403;-77
2021/12/04 13:54:36;;;;;;;19.30;10.60;;;;;;;3.63;60.58;97714.28;102952;1314;62016;-77
2021/12/04 13:57:11;;;;;;;22.00;12.80;;;;;;;3.65;60.61;97713.77;103326;1313;62504;-76
2021/12/04 13:59:39;;;;;;;19.80;11.20;;;;;;;3.65;60.61;97714.14;104205;1310;75294;-76
2021/12/04 14:02:18;;;;;;;21.30;12.00;;;;;;;3.62;60.12;97717.80;104557;1318;67479;-75
2021/12/04 14:04:44;;;;;;;20.70;11.50;;;;;;;3.58;60.50;97721.23;105234;1313;73355;-77
2021/12/04 14:07:11;;;;;;;19.90;10.90;;;;;;;3.52;60.27;97722.27;105558;1317;60422;-76
2021/12/04 14:09:39;;;;;;;24.60;11.30;;;;;;;3.46;60.23;97720.53;105472;1310;62139;-75
2021/12/04 14:12:06;;;;;;;18.60;9.20;;;;;;;3.40;60.14;97718.39;102589;1310;76016;-76
2021/12/04 14:14:35;;;;;;;19.60;9.70;;;;;;;3.35;60.13;97721.84;102536;1310;70780;-76
2021/12/04 14:17:06;;;;;;;8.70;5.50;;;;;;;3.29;60.35;97719.40;102554;1310;73124;-74
2021/12/04 14:19:33;;;;;;;6.80;4.60;;;;;;;3.17;61.90;97718.86;102561;1310;62154;-77
2021/12/04 14:22:05;;;;;;;5.80;3.70;;;;;;;3.02;62.94;97724.81;102535;1310;62118;-78
2021/12/04 14:24:55;;;;;;;5.50;3.50;;;;;;;2.87;64.30;97719.85;102432;1310;77211;-77
2021/12/04 14:27:30;;;;;;;4.90;3.10;;;;;;;2.70;65.80;97720.47;102436;1310;69392;-77
2021/12/04 14:30:08;;;;;;;8.30;5.70;;;;;;;2.51;68.10;97722.24;102324;1314;73434;-78
2021/12/04 14:32:37;;;;;;;9.40;5.50;;;;;;;2.25;69.28;97730.11;102403;1311;62215;-76
2021/12/04 14:35:09;;;;;;;11.00;6.90;;;;;;;2.06;70.08;97738.66;102344;1313;61883;-76
2021/12/04 14:37:40;;;;;;;9.90;6.80;;;;;;;1.91;70.71;97740.12;102071;1310;76504;-76
2021/12/04 14:40:11;;;;;;;14.60;8.60;;;;;;;1.83;71.56;97744.04;102011;1314;68568;-75
2021/12/04 14:42:39;;;;;;;13.10;8.70;;;;;;;1.77;72.77;97741.40;102360;1310;73414;-76
2021/12/04 14:45:25;;;;;;;14.30;8.30;;;;;;;1.70;73.29;97748.58;101987;1318;62304;-75
2021/12/04 14:48:12;;;;;;;11.70;7.40;;;;;;;1.63;74.47;97747.03;102381;1310;62040;-76